Time;durP1;ratioP1;P1;durP2;ratioP2;P2;SDS_P1;SDS_P2;PMS_P1;PMS_P2;Temp;Humidity;BMP_temperature;BMP_pressure;BME280_temperature;BME280_humidity;BME280_pressure;Samples;Min_cycle;Max_cycle;Signal;HPM_P1;HPM_P2
2022/07/24 00:02:19;;;;;;;8.07;4.50;;;;;;;;;;5053111;28;20059;-39
2022/07/24 00:04:45;;;;;;;6.00;4.85;;;;;;;;;;5052053;28;20064;-39
2022/07/24 00:07:11;;;;;;;6.15;4.57;;;;;;;;;;5052849;28;20113;-38
2022/07/24 00:09:38;;;;;;;6.85;5.00;;;;;;;;;;5052985;28;20033;-39
2022/07/24 00:12:04;;;;;;;7.50;4.93;;;;;;;;;;5051867;28;20025;-39
2022/07/24 00:14:30;;;;;;;7.70;4.65;;;;;;;;;;5052617;28;20477;-38
2022/07/24 00:16:56;;;;;;;7.15;5.25;;;;;;;;;;5051412;28;20025;-39
2022/07/24 00:19:22;;;;;;;5.20;4.68;;;;;;;;;;5053065;28;20021;-39
2022/07/24 00:21:48;;;;;;;6.63;5.00;;;;;;;;;;5051492;28;20548;-39
2022/07/24 00:24:14;;;;;;;11.27;4.63;;;;;;;;;;5052622;28;20031;-38
2022/07/24 00:26:40;;;;;;;8.43;5.68;;;;;;;;;;5052660;28;20029;-38
2022/07/24 00:29:06;;;;;;;6.60;4.55;;;;;;;;;;5052642;28;20029;-39
2022/07/24 00:31:32;;;;;;;9.27;4.47;;;;;;;;;;5052733;28;20035;-39
2022/07/24 00:33:58;;;;;;;6.60;4.55;;;;;;;;;;5051900;28;20052;-39
2022/07/24 00:36:25;;;;;;;5.63;5.05;;;;;;;;;;5052948;28;20025;-38
2022/07/24 00:38:51;;;;;;;8.32;5.53;;;;;;;;;;5052867;28;20152;-39
2022/07/24 00:41:17;;;;;;;7.43;4.88;;;;;;;;;;5054129;28;20070;-38
2022/07/24 00:43:59;;;;;;;6.38;5.45;;;;;;;;;;5056308;28;20108;-38
2022/07/24 00:46:25;;;;;;;8.75;5.82;;;;;;;;;;5056338;28;20021;-38
2022/07/24 00:48:51;;;;;;;6.85;5.50;;;;;;;;;;5056214;28;20070;-38
2022/07/24 00:51:17;;;;;;;9.00;4.53;;;;;;;;;;5056166;28;20033;-38
2022/07/24 00:53:43;;;;;;;11.68;7.53;;;;;;;;;;5056406;28;20080;-38
2022/07/24 00:56:10;;;;;;;7.78;5.07;;;;;;;;;;5056958;28;20040;-39
2022/07/24 00:58:36;;;;;;;7.15;5.30;;;;;;;;;;5056336;28;20035;-39
2022/07/24 01:01:03;;;;;;;9.65;6.05;;;;;;;;;;5056026;28;20096;-39
2022/07/24 01:03:29;;;;;;;8.13;5.40;;;;;;;;;;5055190;28;20071;-39
2022/07/24 01:05:55;;;;;;;4.40;4.00;;;;;;;;;;5054647;28;20101;-37
2022/07/24 01:08:21;;;;;;;9.20;4.72;;;;;;;;;;5055876;28;20056;-38
2022/07/24 01:10:47;;;;;;;12.30;6.47;;;;;;;;;;5055861;28;20033;-38
2022/07/24 01:13:13;;;;;;;7.82;4.82;;;;;;;;;;5055820;28;20053;-38
2022/07/24 01:15:39;;;;;;;6.40;5.07;;;;;;;;;;5055266;28;20026;-38
2022/07/24 01:18:05;;;;;;;9.20;5.85;;;;;;;;;;5056366;28;20025;-39
2022/07/24 01:20:31;;;;;;;7.50;5.05;;;;;;;;;;5055715;28;20096;-38
2022/07/24 01:22:57;;;;;;;8.15;5.22;;;;;;;;;;5055986;28;20112;-39
2022/07/24 01:25:23;;;;;;;6.95;5.10;;;;;;;;;;5055909;28;20063;-39
2022/07/24 01:27:49;;;;;;;9.00;4.43;;;;;;;;;;5055781;28;20032;-38
2022/07/24 01:30:15;;;;;;;7.07;4.07;;;;;;;;;;5056174;28;20036;-38
2022/07/24 01:32:41;;;;;;;6.25;4.85;;;;;;;;;;5055297;28;20033;-40
2022/07/24 01:35:08;;;;;;;9.63;5.50;;;;;;;;;;5055505;28;20050;-38
2022/07/24 01:37:34;;;;;;;9.90;4.50;;;;;;;;;;5055276;28;20114;-38
2022/07/24 01:40:02;;;;;;;8.05;5.22;;;;;;;;;;5055507;28;20032;-38
2022/07/24 01:42:28;;;;;;;7.70;4.97;;;;;;;;;;5054340;28;20031;-39
2022/07/24 01:44:54;;;;;;;8.68;6.13;;;;;;;;;;5055564;28;20469;-39
2022/07/24 01:47:20;;;;;;;5.95;4.32;;;;;;;;;;5055149;28;20017;-38
2022/07/24 01:49:46;;;;;;;7.38;4.65;;;;;;;;;;5055276;28;20026;-38
2022/07/24 01:52:12;;;;;;;7.30;4.97;;;;;;;;;;5055134;28;20040;-38
2022/07/24 01:54:38;;;;;;;9.73;5.65;;;;;;;;;;5054863;28;20098;-39
2022/07/24 01:57:04;;;;;;;8.43;5.32;;;;;;;;;;5055341;28;20109;-38
2022/07/24 01:59:30;;;;;;;9.02;5.20;;;;;;;;;;5055414;28;20066;-38
2022/07/24 02:01:56;;;;;;;9.18;5.07;;;;;;;;;;5055623;28;20021;-38
2022/07/24 02:04:22;;;;;;;6.63;4.63;;;;;;;;;;5055644;28;20465;-38
2022/07/24 02:06:48;;;;;;;6.15;5.45;;;;;;;;;;5055346;28;20108;-38
2022/07/24 02:09:14;;;;;;;8.70;4.95;;;;;;;;;;5055298;28;20099;-39
2022/07/24 02:11:40;;;;;;;9.80;4.88;;;;;;;;;;5055262;28;20563;-39
2022/07/24 02:14:06;;;;;;;5.60;4.82;;;;;;;;;;5054997;28;20064;-38
2022/07/24 02:16:32;;;;;;;7.35;5.07;;;;;;;;;;5053504;28;20052;-38
2022/07/24 02:18:58;;;;;;;8.68;5.00;;;;;;;;;;5054597;28;20497;-38
2022/07/24 02:21:24;;;;;;;7.30;5.63;;;;;;;;;;5054973;28;20479;-38
2022/07/24 02:23:50;;;;;;;9.75;5.55;;;;;;;;;;5054462;28;20025;-38
2022/07/24 02:26:16;;;;;;;8.27;4.70;;;;;;;;;;5054338;28;20021;-38
2022/07/24 02:28:42;;;;;;;8.85;5.43;;;;;;;;;;5054978;28;20040;-39
2022/07/24 02:31:08;;;;;;;18.42;5.22;;;;;;;;;;5054381;28;20021;-38
2022/07/24 02:33:34;;;;;;;7.07;4.60;;;;;;;;;;5054132;28;20028;-38
2022/07/24 02:36:00;;;;;;;7.70;5.38;;;;;;;;;;5054192;28;20044;-38
2022/07/24 02:38:26;;;;;;;6.70;4.80;;;;;;;;;;5054174;28;20033;-38
2022/07/24 02:40:52;;;;;;;10.93;6.15;;;;;;;;;;5054031;28;20393;-38
2022/07/24 02:43:18;;;;;;;8.23;5.10;;;;;;;;;;5052869;28;20096;-38
2022/07/24 02:45:44;;;;;;;7.50;5.57;;;;;;;;;;5054055;28;20023;-38
2022/07/24 02:48:10;;;;;;;5.78;4.63;;;;;;;;;;5054020;28;20021;-38
2022/07/24 02:50:38;;;;;;;6.38;4.97;;;;;;;;;;5054377;28;20457;-39
2022/07/24 02:53:04;;;;;;;8.27;4.57;;;;;;;;;;5052657;28;20073;-38
2022/07/24 02:55:30;;;;;;;6.70;4.63;;;;;;;;;;5053586;28;20091;-39
2022/07/24 02:57:56;;;;;;;6.65;4.55;;;;;;;;;;5053777;28;20023;-38
2022/07/24 03:00:23;;;;;;;8.63;5.22;;;;;;;;;;5053720;28;20384;-39
2022/07/24 03:02:49;;;;;;;9.40;5.70;;;;;;;;;;5053861;28;20388;-39
2022/07/24 03:05:16;;;;;;;5.93;4.70;;;;;;;;;;5051882;28;20025;-38
2022/07/24 03:07:42;;;;;;;9.98;5.35;;;;;;;;;;5054086;28;20481;-38
2022/07/24 03:10:09;;;;;;;8.63;5.03;;;;;;;;;;5053511;28;20028;-38
2022/07/24 03:12:34;;;;;;;7.10;5.30;;;;;;;;;;5053443;28;20040;-38
2022/07/24 03:15:01;;;;;;;6.82;4.85;;;;;;;;;;5053410;28;20159;-38
2022/07/24 03:17:27;;;;;;;6.95;4.90;;;;;;;;;;5053683;28;20025;-38
2022/07/24 03:19:53;;;;;;;8.25;5.85;;;;;;;;;;5053330;28;20022;-38
2022/07/24 03:22:19;;;;;;;6.00;4.82;;;;;;;;;;5053284;28;20043;-38
2022/07/24 19:54:27;;;;;;;8.02;6.32;;;;;;;;;;4992127;28;20396;-47
2022/07/24 19:56:53;;;;;;;8.68;6.13;;;;;;;;;;4991489;28;20109;-46
2022/07/24 19:59:19;;;;;;;9.18;5.32;;;;;;;;;;4991843;28;20105;-47
2022/07/24 20:01:46;;;;;;;7.05;5.57;;;;;;;;;;4991470;28;20106;-48
2022/07/24 20:04:12;;;;;;;9.95;6.88;;;;;;;;;;4992532;28;20035;-49
2022/07/24 20:06:38;;;;;;;7.63;5.85;;;;;;;;;;4973505;28;20125;-47
2022/07/24 20:09:04;;;;;;;9.82;6.00;;;;;;;;;;4991108;28;20026;-48
2022/07/24 20:11:30;;;;;;;8.73;6.35;;;;;;;;;;4991442;28;20030;-39
2022/07/24 20:13:56;;;;;;;10.90;6.78;;;;;;;;;;4993505;28;20104;-39
2022/07/24 20:16:22;;;;;;;12.63;7.70;;;;;;;;;;4990086;28;20026;-40
2022/07/24 20:18:48;;;;;;;12.75;8.57;;;;;;;;;;4991326;28;20069;-40
2022/07/24 20:21:14;;;;;;;8.68;6.30;;;;;;;;;;4990727;28;20030;-38
2022/07/24 20:23:41;;;;;;;8.70;6.57;;;;;;;;;;4990515;28;20042;-39
2022/07/24 20:26:07;;;;;;;8.65;6.28;;;;;;;;;;4989407;28;20031;-40
2022/07/24 20:28:34;;;;;;;7.57;5.93;;;;;;;;;;4990041;28;20027;-40
2022/07/24 20:31:00;;;;;;;11.55;6.20;;;;;;;;;;4989665;28;20048;-39
2022/07/24 20:33:26;;;;;;;8.13;5.90;;;;;;;;;;4990548;28;20117;-39
2022/07/24 20:35:53;;;;;;;17.77;6.78;;;;;;;;;;4989399;28;20027;-38
2022/07/24 20:38:19;;;;;;;7.32;5.97;;;;;;;;;;4989196;28;20106;-39
2022/07/24 20:40:45;;;;;;;8.00;6.00;;;;;;;;;;4990588;28;20089;-39
2022/07/24 20:43:11;;;;;;;12.88;6.05;;;;;;;;;;4990451;28;20165;-39
2022/07/24 20:45:38;;;;;;;6.80;6.00;;;;;;;;;;4990445;28;20030;-38
2022/07/24 20:48:04;;;;;;;8.55;6.60;;;;;;;;;;4990656;28;20031;-38
2022/07/24 20:50:30;;;;;;;8.88;6.30;;;;;;;;;;4990489;28;20023;-39
2022/07/24 20:52:56;;;;;;;7.97;6.53;;;;;;;;;;4997621;28;20050;-42
2022/07/24 20:55:22;;;;;;;8.32;6.70;;;;;;;;;;5009743;28;20077;-39
2022/07/24 20:57:48;;;;;;;9.70;6.20;;;;;;;;;;5009545;28;20109;-38
2022/07/24 21:00:15;;;;;;;10.07;7.05;;;;;;;;;;5009813;28;20112;-38
2022/07/24 21:02:41;;;;;;;9.38;6.32;;;;;;;;;;5009849;28;20030;-38
2022/07/24 21:05:07;;;;;;;12.10;6.78;;;;;;;;;;5000340;28;20031;-38
2022/07/24 21:07:33;;;;;;;10.77;6.70;;;;;;;;;;4996274;28;20034;-38
2022/07/24 21:09:59;;;;;;;10.65;6.97;;;;;;;;;;4996263;28;20085;-38
2022/07/24 21:12:25;;;;;;;7.45;5.70;;;;;;;;;;4998665;28;20022;-38
2022/07/24 21:14:51;;;;;;;8.23;6.03;;;;;;;;;;4996218;28;20085;-38
2022/07/24 21:17:17;;;;;;;8.55;6.65;;;;;;;;;;4996326;28;20470;-37
2022/07/24 21:19:43;;;;;;;14.25;6.75;;;;;;;;;;4996435;28;20023;-38
2022/07/24 21:22:10;;;;;;;8.52;6.32;;;;;;;;;;4996172;28;20023;-38
2022/07/24 21:24:36;;;;;;;6.68;5.43;;;;;;;;;;4996090;28;20109;-38
2022/07/24 21:27:02;;;;;;;8.23;6.53;;;;;;;;;;4996080;28;20073;-39
2022/07/24 21:29:28;;;;;;;11.02;5.65;;;;;;;;;;4996511;28;20430;-37
2022/07/24 21:31:54;;;;;;;10.20;7.00;;;;;;;;;;4995114;28;20406;-38
2022/07/24 21:34:20;;;;;;;7.97;6.45;;;;;;;;;;4995042;28;20406;-37
2022/07/24 21:36:46;;;;;;;9.30;6.55;;;;;;;;;;4995289;28;20022;-38
2022/07/24 21:39:13;;;;;;;8.85;5.88;;;;;;;;;;4995082;28;20026;-39
2022/07/24 21:41:39;;;;;;;10.63;6.75;;;;;;;;;;4995085;28;20033;-38
2022/07/24 21:44:05;;;;;;;7.30;5.13;;;;;;;;;;4994700;28;20026;-38
2022/07/24 21:46:31;;;;;;;8.32;6.65;;;;;;;;;;4996149;28;20034;-39
2022/07/24 21:48:57;;;;;;;7.20;5.65;;;;;;;;;;4995039;28;20029;-38
2022/07/24 21:51:24;;;;;;;9.38;6.82;;;;;;;;;;4995788;28;20415;-38
2022/07/24 21:53:50;;;;;;;7.65;6.40;;;;;;;;;;4994552;28;20042;-40
2022/07/24 21:56:16;;;;;;;11.55;7.03;;;;;;;;;;4996437;28;20033;-40
2022/07/24 21:58:44;;;;;;;14.60;7.03;;;;;;;;;;4995869;28;20113;-40
2022/07/24 22:01:10;;;;;;;9.10;6.80;;;;;;;;;;4996644;28;20057;-39
2022/07/24 22:03:36;;;;;;;10.40;6.28;;;;;;;;;;4995795;28;20030;-39
2022/07/24 22:06:03;;;;;;;7.13;6.20;;;;;;;;;;4994424;28;20065;-40
2022/07/24 22:08:29;;;;;;;7.63;6.45;;;;;;;;;;4995406;28;20030;-40
2022/07/24 22:10:56;;;;;;;7.00;6.20;;;;;;;;;;4998468;28;20022;-40
2022/07/24 22:13:24;;;;;;;9.10;6.65;;;;;;;;;;4998075;28;20030;-39
2022/07/24 22:15:51;;;;;;;10.82;6.88;;;;;;;;;;4993429;28;20550;-39
2022/07/24 22:18:17;;;;;;;7.55;5.85;;;;;;;;;;4996063;28;20018;-38
2022/07/24 22:20:43;;;;;;;8.10;6.75;;;;;;;;;;4994547;28;20026;-40
2022/07/24 22:23:09;;;;;;;7.88;6.05;;;;;;;;;;4995512;28;20168;-43
2022/07/24 22:25:35;;;;;;;8.80;5.78;;;;;;;;;;4995308;28;20031;-40
2022/07/24 22:28:01;;;;;;;7.95;6.53;;;;;;;;;;4995447;28;20054;-38
2022/07/24 22:30:27;;;;;;;11.43;6.57;;;;;;;;;;4995713;28;20038;-38
2022/07/24 22:32:54;;;;;;;9.05;6.80;;;;;;;;;;4995788;28;20050;-39
2022/07/24 22:35:20;;;;;;;7.45;6.50;;;;;;;;;;4995940;28;20026;-40
2022/07/24 22:37:47;;;;;;;7.90;5.75;;;;;;;;;;4995178;28;20497;-41
2022/07/24 22:40:13;;;;;;;8.00;6.07;;;;;;;;;;4995316;28;20054;-38
2022/07/24 22:42:39;;;;;;;9.95;6.55;;;;;;;;;;4993597;28;20474;-38
2022/07/24 22:45:06;;;;;;;9.32;6.18;;;;;;;;;;4995614;28;20026;-39
2022/07/24 22:47:33;;;;;;;8.52;6.85;;;;;;;;;;4995153;28;20034;-39
2022/07/24 22:49:59;;;;;;;8.55;6.20;;;;;;;;;;4993880;28;20044;-38
2022/07/24 22:52:26;;;;;;;7.80;6.40;;;;;;;;;;4994125;28;20556;-39
2022/07/24 22:54:52;;;;;;;9.55;6.47;;;;;;;;;;4995911;28;20482;-39
2022/07/24 22:57:18;;;;;;;8.45;6.63;;;;;;;;;;4994533;28;20109;-39
2022/07/24 22:59:45;;;;;;;7.90;6.22;;;;;;;;;;4995349;28;20030;-41
2022/07/24 23:02:13;;;;;;;8.02;6.63;;;;;;;;;;4993552;28;20034;-39
2022/07/24 23:04:39;;;;;;;10.15;6.43;;;;;;;;;;4994244;28;20030;-39
2022/07/24 23:07:05;;;;;;;10.02;6.43;;;;;;;;;;4994344;28;20375;-39
2022/07/24 23:09:31;;;;;;;10.68;6.47;;;;;;;;;;4994007;28;20034;-38
2022/07/24 23:11:57;;;;;;;8.00;6.35;;;;;;;;;;4994190;28;20391;-38
2022/07/24 23:14:23;;;;;;;8.82;6.43;;;;;;;;;;4993856;28;20096;-38
2022/07/24 23:16:49;;;;;;;7.78;6.43;;;;;;;;;;4994164;28;20426;-39
2022/07/24 23:19:15;;;;;;;7.80;6.30;;;;;;;;;;4993899;28;20022;-39
2022/07/24 23:21:42;;;;;;;7.75;6.72;;;;;;;;;;4994154;28;20026;-38
2022/07/24 23:24:10;;;;;;;8.80;6.53;;;;;;;;;;4994018;28;20042;-37
2022/07/24 23:26:37;;;;;;;8.13;5.88;;;;;;;;;;4993976;28;20034;-39
2022/07/24 23:29:03;;;;;;;13.40;6.43;;;;;;;;;;4993596;28;20037;-45
2022/07/24 23:31:29;;;;;;;8.75;7.03;;;;;;;;;;4992753;28;20034;-43
2022/07/24 23:33:55;;;;;;;10.70;7.05;;;;;;;;;;4993567;28;20033;-39
2022/07/24 23:36:21;;;;;;;8.52;6.35;;;;;;;;;;4994101;28;20447;-39
2022/07/24 23:38:47;;;;;;;9.10;6.63;;;;;;;;;;4993611;28;20497;-39
2022/07/24 23:41:13;;;;;;;13.18;6.88;;;;;;;;;;4993440;28;20066;-38
2022/07/24 23:43:39;;;;;;;11.77;7.13;;;;;;;;;;4992234;28;20026;-38
2022/07/24 23:46:05;;;;;;;8.25;7.10;;;;;;;;;;4993391;28;20030;-38
2022/07/24 23:48:31;;;;;;;10.63;6.70;;;;;;;;;;4992280;28;20030;-39
2022/07/24 23:50:57;;;;;;;8.65;7.00;;;;;;;;;;4993345;28;20433;-41
2022/07/24 23:53:23;;;;;;;14.27;7.35;;;;;;;;;;4993226;28;20072;-38
2022/07/24 23:55:49;;;;;;;12.73;7.57;;;;;;;;;;4993479;28;20030;-38
2022/07/24 23:58:15;;;;;;;8.88;7.20;;;;;;;;;;4993485;28;20026;-39
